Time;durP1;ratioP1;P1;durP2;ratioP2;P2;SDS_P1;SDS_P2;PMS_P1;PMS_P2;Temp;Humidity;BMP_temperature;BMP_pressure;BME280_temperature;BME280_humidity;BME280_pressure;Samples;Min_cycle;Max_cycle;Signal;HPM_P1;HPM_P2
2023/10/27 00:00:23;;;;;;;10.70;5.72;;;;;;;12.53;90.49;96002.03;5115154;28;20490;-72
2023/10/27 00:02:48;;;;;;;14.43;5.88;;;;;;;12.49;91.03;96002.66;5096716;28;20617;-73
2023/10/27 00:05:13;;;;;;;10.30;5.60;;;;;;;12.45;91.03;96000.88;5096980;28;20467;-74
2023/10/27 00:07:39;;;;;;;13.30;6.07;;;;;;;12.44;90.44;95994.66;5097108;28;20036;-74
2023/10/27 00:10:05;;;;;;;14.40;6.00;;;;;;;12.39;90.70;95994.78;5113053;28;20024;-74
2023/10/27 00:12:30;;;;;;;15.45;5.97;;;;;;;12.32;90.83;95983.66;5096418;28;20042;-73
2023/10/27 00:14:55;;;;;;;13.77;6.22;;;;;;;12.35;91.05;95980.34;5114995;28;20035;-74
2023/10/27 00:17:21;;;;;;;13.10;6.13;;;;;;;12.29;91.27;95981.59;5096956;28;20032;-73
2023/10/27 00:19:46;;;;;;;12.93;5.53;;;;;;;12.40;90.85;95996.41;5096623;28;20481;-73
2023/10/27 00:22:11;;;;;;;12.60;5.97;;;;;;;12.27;90.88;95986.50;5114571;28;20031;-73
2023/10/27 00:24:37;;;;;;;17.63;6.28;;;;;;;12.36;90.77;95997.34;5114795;28;20475;-73
2023/10/27 00:27:02;;;;;;;12.10;5.10;;;;;;;12.33;91.12;96004.16;5096810;28;20055;-73
2023/10/27 00:29:28;;;;;;;11.43;6.03;;;;;;;12.34;90.91;96002.25;5114680;28;20402;-73
2023/10/27 00:31:53;;;;;;;13.27;5.68;;;;;;;12.20;90.40;95988.03;5092704;28;20093;-72
2023/10/27 00:34:18;;;;;;;12.63;6.00;;;;;;;12.28;90.91;96004.28;5113419;28;20019;-72
2023/10/27 00:36:44;;;;;;;10.32;5.35;;;;;;;12.22;91.04;95989.31;5114316;28;20180;-73
2023/10/27 00:39:09;;;;;;;13.25;6.13;;;;;;;12.32;90.44;95999.84;5096071;28;20028;-72
2023/10/27 00:41:35;;;;;;;9.95;5.20;;;;;;;12.32;90.33;96001.75;5114644;28;20032;-72
2023/10/27 00:44:00;;;;;;;12.65;5.10;;;;;;;12.23;91.06;95990.09;5095762;28;20645;-72
2023/10/27 00:46:26;;;;;;;13.93;5.30;;;;;;;12.24;90.23;96008.69;5114477;28;20027;-72
2023/10/27 00:48:51;;;;;;;16.60;5.30;;;;;;;12.20;90.58;96004.22;5096007;28;20023;-72
2023/10/27 00:51:16;;;;;;;11.95;4.85;;;;;;;12.17;90.90;96008.34;5092821;28;20063;-73
2023/10/27 00:53:42;;;;;;;14.07;5.22;;;;;;;12.16;90.78;96014.81;5108251;28;20027;-72
2023/10/27 00:56:07;;;;;;;11.88;5.05;;;;;;;12.20;90.84;96023.91;5114326;28;20103;-72
2023/10/27 00:58:33;;;;;;;15.20;5.45;;;;;;;12.14;90.74;96025.13;5096113;28;20157;-70
2023/10/27 01:01:01;;;;;;;16.35;5.65;;;;;;;12.16;90.42;96024.84;5088823;28;20028;-71
2023/10/27 01:03:27;;;;;;;13.45;5.00;;;;;;;12.05;91.20;96008.09;5100458;28;20022;-70
2023/10/27 01:05:52;;;;;;;15.27;5.32;;;;;;;12.13;90.58;96028.94;5103873;27;20027;-70
2023/10/27 01:08:18;;;;;;;15.63;5.10;;;;;;;12.08;91.31;96036.34;5134429;27;20391;-71
2023/10/27 01:10:43;;;;;;;15.15;5.35;;;;;;;12.12;90.66;96019.25;5101106;28;20032;-71
2023/10/27 01:13:08;;;;;;;17.45;5.20;;;;;;;12.05;90.80;96023.47;5086509;27;20081;-69
2023/10/27 01:15:34;;;;;;;15.18;5.60;;;;;;;12.07;90.59;96022.06;5116065;27;20456;-69
2023/10/27 01:17:59;;;;;;;15.85;5.40;;;;;;;11.94;90.81;96006.75;5134232;27;20027;-69
2023/10/27 01:20:25;;;;;;;16.98;5.53;;;;;;;11.96;91.13;96006.44;5116171;27;20039;-69
2023/10/27 01:22:50;;;;;;;17.90;5.97;;;;;;;11.99;91.58;96020.13;5098396;28;20020;-71
2023/10/27 01:25:16;;;;;;;20.15;5.75;;;;;;;12.04;91.28;96027.28;5084891;28;20034;-71
2023/10/27 01:27:42;;;;;;;19.27;5.15;;;;;;;12.06;90.95;96020.50;5088933;28;20051;-71
2023/10/27 01:30:09;;;;;;;16.30;4.97;;;;;;;11.99;91.10;96025.50;5091733;28;20135;-72
2023/10/27 01:32:35;;;;;;;19.70;4.78;;;;;;;11.99;90.99;96020.13;5098466;27;20407;-70
2023/10/27 01:35:00;;;;;;;16.10;5.20;;;;;;;11.92;91.06;96018.94;5115712;27;20483;-71
2023/10/27 01:37:26;;;;;;;16.95;5.43;;;;;;;11.76;91.01;96003.09;5081874;28;20082;-72
2023/10/27 01:39:51;;;;;;;12.60;5.05;;;;;;;11.87;91.40;96000.97;5108814;28;20049;-71
2023/10/27 01:42:17;;;;;;;18.20;5.30;;;;;;;11.89;90.76;96004.16;5108128;27;20364;-71
2023/10/27 01:44:42;;;;;;;15.90;4.85;;;;;;;11.91;90.70;95995.75;5095772;28;20418;-72
2023/10/27 01:47:07;;;;;;;15.48;5.07;;;;;;;11.89;90.84;95990.69;5127130;27;20105;-71
2023/10/27 01:49:33;;;;;;;17.55;5.35;;;;;;;11.87;90.79;95989.38;5084111;27;20039;-71
2023/10/27 01:51:58;;;;;;;18.08;6.03;;;;;;;11.81;90.95;96004.88;5086098;28;20027;-71
2023/10/27 01:54:24;;;;;;;16.23;5.68;;;;;;;11.91;90.86;95996.56;5109483;28;20042;-71
2023/10/27 01:56:49;;;;;;;14.43;5.38;;;;;;;11.84;90.64;95977.31;5126526;27;20051;-71
2023/10/27 01:59:14;;;;;;;14.98;5.57;;;;;;;11.85;90.76;95984.31;5084894;27;20035;-71
2023/10/27 02:01:40;;;;;;;14.73;5.65;;;;;;;11.82;90.74;95987.63;5121136;27;20027;-71
2023/10/27 02:04:05;;;;;;;16.65;5.60;;;;;;;11.87;90.14;95989.38;5108268;28;20040;-71
2023/10/27 02:06:30;;;;;;;17.65;5.88;;;;;;;11.70;90.62;95996.25;5059081;28;20094;-71
2023/10/27 02:08:56;;;;;;;17.77;5.72;;;;;;;11.71;90.97;95991.66;5084291;28;20034;-70
2023/10/27 02:11:23;;;;;;;19.92;5.82;;;;;;;11.70;91.20;95995.44;5085217;28;20030;-70
2023/10/27 02:13:49;;;;;;;15.10;5.78;;;;;;;11.74;90.75;95985.63;5132213;27;20058;-70
2023/10/27 02:16:14;;;;;;;20.92;5.85;;;;;;;11.74;91.16;95985.63;5115560;27;20023;-70
2023/10/27 02:18:40;;;;;;;14.52;5.72;;;;;;;11.60;91.31;95968.69;5113997;27;20441;-71
2023/10/27 02:21:05;;;;;;;13.15;5.68;;;;;;;11.65;91.00;95976.66;5090671;27;20026;-71
2023/10/27 02:23:31;;;;;;;22.27;6.38;;;;;;;11.72;91.14;95983.25;5098170;27;20425;-72
2023/10/27 02:25:56;;;;;;;19.48;6.35;;;;;;;11.71;91.10;95980.88;5098423;27;20037;-72
2023/10/27 02:28:22;;;;;;;20.58;6.13;;;;;;;11.69;91.33;95977.69;5096006;28;20053;-71
2023/10/27 02:30:47;;;;;;;19.95;6.03;;;;;;;11.62;91.26;95961.88;5113556;28;20032;-71
2023/10/27 02:33:13;;;;;;;17.90;6.30;;;;;;;11.79;91.18;95978.22;5126611;27;20394;-71
2023/10/27 02:35:39;;;;;;;14.82;5.97;;;;;;;11.71;91.01;95962.00;5094689;28;20026;-72
2023/10/27 02:38:04;;;;;;;18.50;6.07;;;;;;;11.67;91.22;95969.06;5094457;28;20035;-72
2023/10/27 02:40:30;;;;;;;19.95;6.55;;;;;;;11.62;91.04;95948.41;5074788;28;20058;-71
2023/10/27 02:42:56;;;;;;;18.95;6.53;;;;;;;11.67;91.10;95959.09;5076353;28;20437;-71
2023/10/27 02:45:21;;;;;;;22.40;7.18;;;;;;;11.59;91.16;95950.94;5125028;27;20023;-72
2023/10/27 02:47:47;;;;;;;17.50;6.35;;;;;;;11.67;91.10;95969.88;5113936;27;20110;-72
2023/10/27 02:50:13;;;;;;;21.83;6.45;;;;;;;11.66;91.60;95962.09;5106427;27;20407;-72
2023/10/27 02:52:38;;;;;;;18.50;6.75;;;;;;;11.65;91.56;95960.47;5114343;27;20414;-75
2023/10/27 02:55:04;;;;;;;20.48;6.70;;;;;;;11.63;91.06;95962.69;5099219;28;20020;-72
2023/10/27 02:57:30;;;;;;;18.40;6.53;;;;;;;11.52;91.10;95972.13;5106293;28;20092;-71
2023/10/27 02:59:57;;;;;;;21.20;7.50;;;;;;;11.47;92.12;95964.13;5093974;28;20422;-71
2023/10/27 03:02:23;;;;;;;18.60;6.80;;;;;;;11.46;91.65;95965.25;5068980;27;20067;-72
2023/10/27 03:04:49;;;;;;;18.42;6.93;;;;;;;11.50;92.01;95974.31;5102082;28;20510;-72
2023/10/27 03:07:15;;;;;;;11.90;6.45;;;;;;;11.42;91.48;95945.38;5050782;28;20040;-72
2023/10/27 03:09:41;;;;;;;19.73;7.22;;;;;;;11.57;91.30;95963.91;5098365;27;20027;-72
2023/10/27 03:12:07;;;;;;;18.50;6.93;;;;;;;11.54;91.47;95954.53;5080947;28;20077;-71
2023/10/27 03:14:32;;;;;;;21.77;6.50;;;;;;;11.38;91.70;95939.81;5120785;28;20020;-71
2023/10/27 03:16:58;;;;;;;19.58;7.28;;;;;;;11.39;91.41;95946.00;5094241;28;20031;-72
2023/10/27 03:19:23;;;;;;;21.60;8.02;;;;;;;11.45;91.20;95960.97;5090891;28;20491;-71
2023/10/27 03:21:49;;;;;;;17.42;6.85;;;;;;;11.45;91.80;95971.75;5124108;28;20069;-73
2023/10/27 03:24:14;;;;;;;18.67;6.63;;;;;;;11.32;92.00;95956.41;5105828;28;20474;-73
2023/10/27 03:26:41;;;;;;;20.38;7.57;;;;;;;11.40;91.52;95967.25;5088775;28;20384;-72
2023/10/27 03:29:07;;;;;;;24.00;7.97;;;;;;;11.40;91.81;95964.56;5075138;28;20029;-73
2023/10/27 03:31:34;;;;;;;14.15;6.70;;;;;;;11.34;91.78;95962.28;5099159;28;20031;-70
2023/10/27 03:34:00;;;;;;;18.40;7.05;;;;;;;11.45;91.85;95974.44;5103460;28;20023;-71
2023/10/27 03:36:25;;;;;;;17.15;7.15;;;;;;;11.46;91.69;95976.03;5096323;28;20066;-71
2023/10/27 03:38:51;;;;;;;16.20;7.25;;;;;;;11.37;91.71;95975.94;5090446;28;20029;-71
2023/10/27 03:41:18;;;;;;;16.40;7.43;;;;;;;11.31;92.26;95970.97;5089291;28;20027;-72
2023/10/27 03:43:43;;;;;;;17.17;7.63;;;;;;;11.36;92.22;95978.94;5103345;28;20016;-70
2023/10/27 03:46:09;;;;;;;20.30;7.45;;;;;;;11.34;91.75;95981.16;5114195;28;20035;-72
2023/10/27 03:48:35;;;;;;;20.45;7.85;;;;;;;11.40;92.12;95979.94;5103190;28;20035;-72
2023/10/27 03:51:05;;;;;;;20.92;7.82;;;;;;;11.46;91.43;95978.72;5077105;28;20036;-72
2023/10/27 03:53:31;;;;;;;22.27;7.22;;;;;;;11.46;91.90;95984.13;5093218;28;20023;-72
2023/10/27 03:55:56;;;;;;;27.15;7.97;;;;;;;11.47;91.75;95980.31;5107752;28;20031;-71
2023/10/27 03:58:22;;;;;;;23.08;7.60;;;;;;;11.41;92.21;95985.00;5077367;28;20024;-72
2023/10/27 04:00:47;;;;;;;23.20;7.85;;;;;;;11.43;91.69;95982.03;5097740;28;20570;-71
2023/10/27 04:03:13;;;;;;;20.90;7.30;;;;;;;11.46;91.76;95986.81;5124305;28;20031;-70
2023/10/27 04:05:38;;;;;;;24.15;7.53;;;;;;;11.50;91.68;95990.50;5083941;28;20513;-71
2023/10/27 04:08:04;;;;;;;25.95;7.80;;;;;;;11.44;92.04;95970.94;5114078;28;20085;-71
2023/10/27 04:10:34;;;;;;;19.15;6.70;;;;;;;11.47;92.12;95980.31;5108378;28;20045;-71
2023/10/27 04:12:59;;;;;;;24.85;7.93;;;;;;;11.43;91.72;95976.63;5109561;27;20027;-71
2023/10/27 04:15:26;;;;;;;16.20;7.13;;;;;;;11.49;91.74;95978.09;5107398;28;20030;-71
2023/10/27 04:17:51;;;;;;;18.00;6.95;;;;;;;11.37;91.54;95969.75;5086022;28;20048;-71
2023/10/27 04:20:16;;;;;;;23.65;7.22;;;;;;;11.43;91.94;95969.34;5114353;28;20026;-72
2023/10/27 04:22:42;;;;;;;24.30;7.30;;;;;;;11.39;91.33;95962.19;5096441;28;20107;-71
2023/10/27 04:25:08;;;;;;;21.10;6.97;;;;;;;11.50;91.43;95974.31;5128663;27;20045;-72
2023/10/27 04:27:34;;;;;;;21.02;7.75;;;;;;;11.53;91.33;95979.88;5096751;28;20544;-70
2023/10/27 04:29:59;;;;;;;21.45;6.85;;;;;;;11.51;91.26;95975.91;5128659;27;20053;-71
2023/10/27 04:32:26;;;;;;;21.67;6.65;;;;;;;11.53;91.36;95962.91;5096436;28;20068;-71
2023/10/27 04:34:51;;;;;;;22.80;7.50;;;;;;;11.45;90.97;95961.75;5099318;28;20016;-70
2023/10/27 04:37:17;;;;;;;27.00;7.50;;;;;;;11.49;90.95;95983.50;5101535;27;20400;-70
2023/10/27 04:39:42;;;;;;;21.70;7.88;;;;;;;11.42;91.18;95961.56;5135270;27;20023;-70
2023/10/27 04:42:08;;;;;;;19.73;7.40;;;;;;;11.47;90.99;95970.34;5083841;28;20035;-70
2023/10/27 04:44:33;;;;;;;21.30;7.35;;;;;;;11.51;91.17;95975.91;5095114;28;20426;-71
2023/10/27 04:46:59;;;;;;;18.95;7.07;;;;;;;11.51;91.05;95975.91;5108749;27;20031;-70
2023/10/27 04:49:25;;;;;;;15.60;7.07;;;;;;;11.53;91.16;95973.69;5063369;28;20111;-70
2023/10/27 04:51:51;;;;;;;28.15;8.10;;;;;;;11.37;91.69;95959.78;5096654;28;20067;-72
2023/10/27 04:54:16;;;;;;;19.17;7.50;;;;;;;11.48;91.24;95971.13;5096444;28;20501;-72
2023/10/27 04:56:43;;;;;;;24.85;8.75;;;;;;;11.47;90.84;95970.34;5091561;27;20031;-72
2023/10/27 04:59:09;;;;;;;19.90;7.85;;;;;;;11.45;90.64;95955.56;5079550;27;20542;-71
2023/10/27 05:01:35;;;;;;;22.67;8.68;;;;;;;11.47;91.21;95948.78;5075909;28;20063;-71
2023/10/27 05:04:00;;;;;;;24.48;9.10;;;;;;;11.45;91.31;95953.69;5093495;28;20076;-71
2023/10/27 05:06:25;;;;;;;23.52;9.02;;;;;;;11.45;91.33;95960.97;5114303;28;20062;-71
2023/10/27 05:08:51;;;;;;;28.67;10.88;;;;;;;11.46;91.04;95962.56;5095878;28;20028;-72
2023/10/27 05:11:17;;;;;;;22.38;10.60;;;;;;;11.36;91.27;95946.63;5095847;28;20031;-72
2023/10/27 05:13:42;;;;;;;24.63;10.77;;;;;;;11.37;91.31;95975.94;5113596;28;20023;-71
2023/10/27 05:16:08;;;;;;;26.25;10.38;;;;;;;11.34;91.69;95975.78;5095783;28;20028;-71
2023/10/27 05:18:33;;;;;;;28.55;10.80;;;;;;;11.28;92.04;95966.19;5113669;28;20439;-72
2023/10/27 05:20:58;;;;;;;29.50;15.38;;;;;;;11.26;91.96;95968.38;5113979;28;20035;-71
2023/10/27 05:23:24;;;;;;;29.80;13.90;;;;;;;11.26;92.10;95968.38;5093742;28;20388;-72
2023/10/27 05:25:50;;;;;;;32.53;14.73;;;;;;;11.35;91.51;95977.34;5095343;28;20042;-71
2023/10/27 05:28:15;;;;;;;28.38;14.32;;;;;;;11.34;91.54;95959.59;5095465;28;20051;-70
2023/10/27 05:30:43;;;;;;;26.60;13.65;;;;;;;11.29;91.26;95951.63;5078747;28;20047;-73
2023/10/27 05:33:09;;;;;;;39.13;18.13;;;;;;;11.32;91.84;95967.97;5091847;28;20031;-69
2023/10/27 05:35:34;;;;;;;32.38;15.30;;;;;;;11.31;92.13;95954.81;5105640;28;20059;-72
2023/10/27 05:37:59;;;;;;;27.40;13.45;;;;;;;11.31;91.71;95954.81;5095108;28;20062;-71
2023/10/27 05:40:25;;;;;;;28.50;13.30;;;;;;;11.35;92.08;95972.75;5113274;28;20040;-71
2023/10/27 05:42:50;;;;;;;31.30;14.55;;;;;;;11.33;91.81;95955.28;5094881;28;20099;-74
2023/10/27 05:45:16;;;;;;;30.38;12.25;;;;;;;11.27;92.19;95960.00;5095170;28;20428;-72
2023/10/27 05:47:41;;;;;;;33.35;13.25;;;;;;;11.26;92.31;95968.38;5077872;28;20024;-74
2023/10/27 05:50:08;;;;;;;30.02;12.90;;;;;;;11.30;92.53;95974.75;5071342;28;20046;-70
2023/10/27 05:52:33;;;;;;;31.17;13.00;;;;;;;11.29;91.93;95983.97;5113587;27;20034;-70
2023/10/27 05:54:59;;;;;;;27.65;11.57;;;;;;;11.33;92.04;95990.31;5115207;27;20031;-70
2023/10/27 05:57:24;;;;;;;29.00;11.98;;;;;;;11.21;92.61;95981.97;5106527;28;20494;-72
2023/10/27 05:59:50;;;;;;;30.25;12.90;;;;;;;11.28;92.49;95990.44;5094909;28;20388;-69
2023/10/27 06:02:15;;;;;;;28.80;11.65;;;;;;;11.25;92.67;95982.97;5094358;28;20023;-70
2023/10/27 06:04:41;;;;;;;26.40;12.32;;;;;;;11.18;92.77;95969.13;5094728;28;20781;-70
2023/10/27 06:07:06;;;;;;;27.73;11.98;;;;;;;11.33;92.07;95991.13;5091219;28;20092;-70
2023/10/27 06:09:32;;;;;;;24.25;12.07;;;;;;;11.27;92.29;95980.78;5103746;28;20032;-70
2023/10/27 06:11:57;;;;;;;27.67;12.38;;;;;;;11.35;92.53;95993.50;5082097;28;20115;-71
2023/10/27 06:14:23;;;;;;;31.52;12.40;;;;;;;11.25;92.54;95977.59;5093478;28;20082;-71
2023/10/27 06:16:48;;;;;;;27.42;11.13;;;;;;;11.26;92.12;95989.94;5091642;28;20028;-71
2023/10/27 06:19:14;;;;;;;34.30;11.88;;;;;;;11.30;92.14;96001.69;5094078;28;20055;-71
2023/10/27 06:21:40;;;;;;;34.47;11.80;;;;;;;11.19;92.43;95992.25;5107874;28;20031;-72
2023/10/27 06:24:07;;;;;;;27.65;10.77;;;;;;;11.23;92.40;95990.53;5094054;28;20062;-71
2023/10/27 06:26:33;;;;;;;30.58;12.60;;;;;;;11.28;92.12;96001.22;5130570;27;20023;-71
2023/10/27 06:28:58;;;;;;;28.63;11.40;;;;;;;11.23;92.38;95996.72;5114517;27;20035;-71
2023/10/27 06:31:24;;;;;;;35.25;11.18;;;;;;;11.27;92.30;95997.72;5114563;27;20031;-71
2023/10/27 06:33:49;;;;;;;24.33;10.70;;;;;;;11.25;92.80;96002.59;5114110;27;20156;-70
2023/10/27 06:36:14;;;;;;;30.73;11.85;;;;;;;11.29;92.71;96005.50;5132377;27;20015;-71
2023/10/27 06:38:40;;;;;;;33.47;11.35;;;;;;;11.34;92.52;96011.56;5114248;27;20110;-71
2023/10/27 06:41:05;;;;;;;31.60;11.95;;;;;;;11.32;92.17;96015.69;5114556;27;20076;-71
2023/10/27 06:43:31;;;;;;;24.88;10.98;;;;;;;11.33;92.27;96014.59;5114095;27;20043;-70
2023/10/27 06:45:56;;;;;;;27.67;11.23;;;;;;;11.36;92.10;96011.28;5132704;27;20019;-71
2023/10/27 06:48:21;;;;;;;24.73;10.80;;;;;;;11.39;92.41;96016.84;5103877;28;20387;-71
2023/10/27 06:50:47;;;;;;;27.98;10.85;;;;;;;11.42;92.36;96018.97;5129181;27;20477;-70
2023/10/27 06:53:13;;;;;;;36.38;11.48;;;;;;;11.47;92.41;96028.81;5097105;27;20046;-71
2023/10/27 06:55:38;;;;;;;25.70;10.30;;;;;;;11.35;92.47;96015.88;5111026;28;20016;-71
2023/10/27 06:58:07;;;;;;;31.10;11.52;;;;;;;11.39;92.68;96026.88;5111941;28;20036;-71
2023/10/27 07:00:33;;;;;;;28.45;10.30;;;;;;;11.38;92.53;96023.38;5112117;28;20023;-71
2023/10/27 07:02:58;;;;;;;24.85;9.75;;;;;;;11.46;92.57;96041.50;5093685;28;20039;-70
2023/10/27 07:05:24;;;;;;;25.38;9.85;;;;;;;11.37;92.47;96019.06;5097321;27;20035;-70
2023/10/27 07:07:50;;;;;;;29.77;10.93;;;;;;;11.45;92.75;96031.84;5114085;27;20046;-71
2023/10/27 07:10:16;;;;;;;32.83;11.40;;;;;;;11.46;92.09;96028.03;5132515;27;20038;-71
2023/10/27 07:12:43;;;;;;;28.63;11.10;;;;;;;11.45;92.65;96031.03;5114154;28;20176;-73
2023/10/27 07:15:09;;;;;;;24.83;12.18;;;;;;;11.46;92.37;96040.72;5094821;28;20025;-71
2023/10/27 07:17:34;;;;;;;31.15;10.75;;;;;;;11.52;92.62;96034.13;5111703;28;20110;-72
2023/10/27 07:20:00;;;;;;;33.08;11.70;;;;;;;11.59;92.19;96034.50;5111877;28;20394;-71
2023/10/27 07:22:25;;;;;;;24.95;11.52;;;;;;;11.55;92.71;96036.97;5093277;28;20036;-71
2023/10/27 07:24:51;;;;;;;21.50;11.02;;;;;;;11.55;92.64;96020.81;5076948;28;20030;-71
2023/10/27 07:27:16;;;;;;;28.92;11.07;;;;;;;11.67;92.43;96028.38;5132615;28;20043;-71
2023/10/27 07:29:41;;;;;;;25.13;11.07;;;;;;;11.69;92.40;96023.53;5113720;28;20031;-71
2023/10/27 07:32:07;;;;;;;30.17;13.25;;;;;;;11.70;92.62;96030.50;5113526;28;20042;-71
2023/10/27 07:34:32;;;;;;;32.38;13.90;;;;;;;11.73;92.32;96032.59;5100083;28;20034;-71
2023/10/27 07:36:58;;;;;;;30.92;14.77;;;;;;;11.77;92.24;96033.56;5100323;28;20039;-70
2023/10/27 07:39:23;;;;;;;29.25;14.30;;;;;;;11.83;92.33;96032.38;5088083;28;20080;-72
2023/10/27 07:41:50;;;;;;;30.55;12.07;;;;;;;11.87;92.35;96032.53;5089421;28;20040;-71
2023/10/27 07:44:15;;;;;;;25.52;11.95;;;;;;;11.89;91.95;96031.13;5093062;28;20057;-71
2023/10/27 07:46:41;;;;;;;31.55;13.43;;;;;;;11.82;92.68;96036.16;5080103;28;20093;-72
2023/10/27 07:49:06;;;;;;;28.67;12.98;;;;;;;11.76;92.82;96021.22;5098289;28;20030;-71
2023/10/27 07:51:32;;;;;;;26.75;11.48;;;;;;;11.84;92.51;96044.72;5068622;28;20103;-71
2023/10/27 07:53:58;;;;;;;30.60;13.50;;;;;;;11.76;93.08;96051.66;5078414;28;20030;-71
2023/10/27 07:56:23;;;;;;;26.42;13.73;;;;;;;11.74;93.10;96043.06;5085700;28;20030;-71
2023/10/27 07:58:48;;;;;;;25.48;13.45;;;;;;;11.76;92.46;96048.16;5098870;28;20024;-71
2023/10/27 08:01:15;;;;;;;26.00;12.18;;;;;;;11.68;92.96;96051.56;5115350;28;20039;-70
2023/10/27 08:03:41;;;;;;;25.77;12.95;;;;;;;11.79;92.79;96047.53;5108639;28;20015;-71
2023/10/27 08:06:09;;;;;;;30.10;13.70;;;;;;;11.74;92.98;96053.03;5089650;27;20524;-71
2023/10/27 08:08:37;;;;;;;26.30;13.80;;;;;;;11.75;92.41;96047.38;5117745;27;20024;-71
2023/10/27 08:11:04;;;;;;;29.10;15.70;;;;;;;11.76;92.81;96048.16;5106938;28;20038;-71
2023/10/27 08:13:30;;;;;;;27.92;16.00;;;;;;;11.79;92.50;96055.63;5096911;28;20015;-71
2023/10/27 08:15:56;;;;;;;29.10;12.75;;;;;;;11.68;93.26;96030.00;5107432;27;20475;-72
2023/10/27 08:18:21;;;;;;;32.63;14.15;;;;;;;11.75;93.15;96041.16;5113567;28;20033;-70
2023/10/27 08:20:48;;;;;;;23.75;13.70;;;;;;;11.63;93.23;96022.81;5096866;28;20063;-71
2023/10/27 08:23:13;;;;;;;21.17;12.48;;;;;;;11.75;93.13;96035.78;5096484;28;20479;-71
2023/10/27 08:25:38;;;;;;;21.17;13.70;;;;;;;11.71;93.27;96029.41;5096760;28;20535;-71
2023/10/27 08:28:05;;;;;;;20.83;11.98;;;;;;;11.76;93.56;96042.78;5083173;28;20029;-72
2023/10/27 08:30:30;;;;;;;25.58;14.55;;;;;;;11.83;93.48;96045.06;5096841;28;20471;-71
2023/10/27 08:32:55;;;;;;;27.92;13.65;;;;;;;11.72;93.73;96047.16;5106351;27;20016;-71
2023/10/27 08:35:21;;;;;;;27.77;16.00;;;;;;;11.70;92.90;96039.38;5075272;28;20567;-72
2023/10/27 08:37:46;;;;;;;24.00;13.80;;;;;;;11.58;93.36;96025.59;5082409;28;20118;-71
2023/10/27 08:40:12;;;;;;;20.52;12.90;;;;;;;11.69;93.45;96047.78;5113944;28;20032;-71
2023/10/27 08:42:42;;;;;;;19.67;12.15;;;;;;;11.76;93.32;96042.78;5102840;28;20032;-72
2023/10/27 08:45:08;;;;;;;15.73;11.65;;;;;;;11.76;93.29;96048.94;5096298;27;20041;-72
2023/10/27 08:47:34;;;;;;;21.30;12.90;;;;;;;11.80;93.28;96054.53;5099321;27;20019;-72
2023/10/27 08:50:01;;;;;;;20.65;12.23;;;;;;;11.90;93.19;96057.03;5097135;28;20040;-72
2023/10/27 08:52:27;;;;;;;22.45;11.82;;;;;;;11.97;93.20;96068.16;5102735;28;20028;-72
2023/10/27 08:54:53;;;;;;;20.10;11.60;;;;;;;11.99;93.09;96063.28;5124354;27;20490;-72
2023/10/27 08:57:18;;;;;;;18.95;11.27;;;;;;;12.03;93.23;96058.06;5099741;28;20027;-72
2023/10/27 08:59:43;;;;;;;16.88;10.07;;;;;;;11.89;92.92;96047.31;5092329;28;20040;-72
2023/10/27 09:02:09;;;;;;;20.00;9.60;;;;;;;12.00;93.50;96064.84;5095952;27;20023;-72
2023/10/27 09:04:41;;;;;;;13.25;8.98;;;;;;;11.96;92.84;96057.69;5102752;28;20093;-72
2023/10/27 09:07:07;;;;;;;13.68;9.63;;;;;;;12.05;92.87;96063.94;5073009;28;20042;-72
2023/10/27 09:09:32;;;;;;;14.00;9.48;;;;;;;12.12;92.52;96059.72;5095923;28;20023;-73
2023/10/27 09:11:57;;;;;;;13.15;8.10;;;;;;;12.10;93.01;96069.22;5126412;27;20490;-72
2023/10/27 09:14:26;;;;;;;14.75;9.05;;;;;;;12.12;92.33;96050.81;5116229;27;20015;-72
2023/10/27 09:17:04;;;;;;;13.73;8.52;;;;;;;12.18;92.00;96050.38;5116249;27;20114;-71
2023/10/27 09:19:29;;;;;;;14.75;7.65;;;;;;;12.11;92.40;96068.91;5115792;27;20035;-72
2023/10/27 09:21:54;;;;;;;14.40;7.82;;;;;;;12.11;92.85;96071.59;5134153;27;20493;-72
2023/10/27 09:24:22;;;;;;;10.98;7.20;;;;;;;12.13;92.69;96064.03;5116179;27;20050;-71
2023/10/27 09:26:47;;;;;;;10.77;6.57;;;;;;;12.08;92.40;96049.84;5134229;27;20030;-72
2023/10/27 09:29:12;;;;;;;14.70;7.22;;;;;;;12.15;92.23;96072.59;5102974;28;20035;-72
2023/10/27 09:31:38;;;;;;;13.40;6.40;;;;;;;12.13;92.28;96069.44;5095345;28;20035;-71
2023/10/27 09:34:24;;;;;;;13.27;7.07;;;;;;;12.12;91.83;96064.31;5095106;28;20107;-72
2023/10/27 09:36:54;;;;;;;11.67;6.23;;;;;;;12.07;92.60;96069.81;5078561;28;20449;-72
2023/10/27 09:39:22;;;;;;;9.90;6.28;;;;;;;12.04;92.34;96065.84;5078028;28;20284;-72
2023/10/27 09:41:58;;;;;;;11.32;6.18;;;;;;;12.00;92.54;96054.06;5078651;28;20069;-72
2023/10/27 09:44:33;;;;;;;11.25;6.22;;;;;;;12.05;91.58;96051.25;5095671;28;20037;-72
2023/10/27 09:47:02;;;;;;;8.98;5.90;;;;;;;12.04;92.28;96056.97;5078401;28;20035;-73
2023/10/27 09:49:38;;;;;;;9.25;5.97;;;;;;;12.12;91.89;96057.03;5095318;28;20542;-72
2023/10/27 09:52:07;;;;;;;8.57;6.10;;;;;;;12.12;91.92;96050.81;5094738;28;20036;-72
2023/10/27 09:54:32;;;;;;;10.02;5.60;;;;;;;12.13;92.16;96047.84;5086084;28;20075;-72
2023/10/27 09:57:00;;;;;;;8.32;5.78;;;;;;;12.15;91.84;96040.22;5101731;27;20066;-72
2023/10/27 09:59:26;;;;;;;10.63;5.90;;;;;;;12.21;91.75;96055.19;5106735;28;20065;-72
2023/10/27 10:01:52;;;;;;;10.73;6.07;;;;;;;12.26;91.96;96052.38;5114320;27;20043;-72
2023/10/27 10:04:51;;;;;;;9.60;5.53;;;;;;;12.32;91.37;96051.13;5115452;27;20027;-72
2023/10/27 10:07:44;;;;;;;6.43;5.32;;;;;;;12.25;90.91;96039.19;5084526;28;20067;-72
2023/10/27 10:10:19;;;;;;;14.02;6.43;;;;;;;12.40;91.55;96053.09;5098819;28;20063;-72
2023/10/27 10:13:00;;;;;;;7.75;5.20;;;;;;;12.36;90.89;96046.72;5123831;27;20039;-72
2023/10/27 10:15:31;;;;;;;7.20;5.22;;;;;;;12.33;91.24;96058.13;5119388;27;20035;-71
2023/10/27 10:17:57;;;;;;;7.63;4.88;;;;;;;12.30;91.74;96050.63;5100197;28;20453;-72
2023/10/27 10:20:41;;;;;;;10.25;5.35;;;;;;;12.18;91.00;96055.78;5059277;28;20024;-72
2023/10/27 10:23:07;;;;;;;4.72;3.70;;;;;;;12.13;91.43;96045.13;5107930;27;20031;-71
2023/10/27 10:25:33;;;;;;;8.98;4.32;;;;;;;12.04;91.68;96057.75;5086928;28;20029;-72
2023/10/27 10:28:07;;;;;;;7.50;3.63;;;;;;;12.10;91.34;96053.84;5097993;28;20039;-72
2023/10/27 10:30:40;;;;;;;9.13;3.90;;;;;;;12.04;92.37;96052.34;5094234;28;20039;-72
2023/10/27 10:33:24;;;;;;;5.30;3.53;;;;;;;12.05;91.53;96055.84;5113482;27;20038;-72
2023/10/27 10:35:51;;;;;;;6.85;3.10;;;;;;;12.01;92.29;96050.28;5114742;27;20031;-72
2023/10/27 10:38:19;;;;;;;3.15;2.75;;;;;;;12.09;92.49;96046.06;5114430;27;20035;-72
2023/10/27 10:40:55;;;;;;;3.90;3.58;;;;;;;12.08;92.02;96033.66;5132893;27;20035;-73
2023/10/27 10:43:24;;;;;;;4.18;3.67;;;;;;;12.09;92.24;96048.75;5096873;28;20039;-73
2023/10/27 10:45:51;;;;;;;4.32;2.80;;;;;;;12.06;92.13;96041.25;5074928;28;20032;-73
2023/10/27 10:48:18;;;;;;;4.25;3.10;;;;;;;12.09;92.20;96024.47;5074419;28;20037;-72
2023/10/27 10:50:44;;;;;;;3.10;2.90;;;;;;;12.05;92.53;96045.84;5093964;28;20032;-72
2023/10/27 10:53:17;;;;;;;4.30;3.10;;;;;;;11.98;91.99;96036.59;5096936;28;20037;-72
2023/10/27 10:55:49;;;;;;;3.55;3.00;;;;;;;11.96;91.93;96009.94;5097728;27;20039;-72
2023/10/27 10:58:27;;;;;;;3.65;3.03;;;;;;;12.08;92.39;96047.16;5120140;27;20467;-72
2023/10/27 11:00:55;;;;;;;3.63;3.30;;;;;;;12.04;92.64;96040.78;5093762;28;20042;-72
2023/10/27 11:03:23;;;;;;;3.28;2.97;;;;;;;12.16;92.39;96041.81;5093762;28;20400;-72
2023/10/27 11:05:51;;;;;;;4.20;3.03;;;;;;;12.13;92.58;96039.75;5069975;28;20060;-72
2023/10/27 11:08:27;;;;;;;4.47;3.10;;;;;;;12.12;92.21;96034.63;5100852;28;20114;-72
2023/10/27 11:11:09;;;;;;;3.25;2.90;;;;;;;12.16;92.85;96046.44;5105997;28;20487;-72
2023/10/27 11:13:45;;;;;;;4.22;2.70;;;;;;;12.13;92.76;96042.44;5097099;28;20171;-71
2023/10/27 11:16:23;;;;;;;4.03;2.70;;;;;;;12.21;92.46;96038.19;5101870;28;20085;-72
2023/10/27 11:18:52;;;;;;;3.67;2.50;;;;;;;12.07;92.45;96024.75;5101832;28;20042;-72
2023/10/27 11:21:19;;;;;;;3.05;2.47;;;;;;;12.11;92.40;96050.00;5100739;28;20019;-72